sensor_id;sensor_type;location;lat;lon;timestamp;temperature;humidity
17200;DHT22;8716;52.268;20.968;2023-07-22T00:00:50;20.70;99.90
17200;DHT22;8716;52.268;20.968;2023-07-22T00:03:18;20.60;99.90
17200;DHT22;8716;52.268;20.968;2023-07-22T00:05:47;20.60;99.90
17200;DHT22;8716;52.268;20.968;2023-07-22T00:08:15;20.50;99.90
17200;DHT22;8716;52.268;20.968;2023-07-22T00:10:43;20.50;99.90
17200;DHT22;8716;52.268;20.968;2023-07-22T00:13:11;20.50;99.90
17200;DHT22;8716;52.268;20.968;2023-07-22T00:15:41;20.40;99.90
17200;DHT22;8716;52.268;20.968;2023-07-22T00:18:09;20.30;99.90
17200;DHT22;8716;52.268;20.968;2023-07-22T00:20:38;20.30;99.90
17200;DHT22;8716;52.268;20.968;2023-07-22T00:23:06;20.20;99.90
17200;DHT22;8716;52.268;20.968;2023-07-22T00:25:34;20.20;99.90
17200;DHT22;8716;52.268;20.968;2023-07-22T00:28:03;20.10;99.90
17200;DHT22;8716;52.268;20.968;2023-07-22T00:30:32;20.00;99.90
17200;DHT22;8716;52.268;20.968;2023-07-22T00:33:03;20.00;99.90
17200;DHT22;8716;52.268;20.968;2023-07-22T00:35:33;19.90;99.90
17200;DHT22;8716;52.268;20.968;2023-07-22T00:38:01;19.90;99.90
17200;DHT22;8716;52.268;20.968;2023-07-22T00:40:30;19.90;99.90
17200;DHT22;8716;52.268;20.968;2023-07-22T00:42:59;19.80;99.90
17200;DHT22;8716;52.268;20.968;2023-07-22T00:45:28;19.80;99.90
17200;DHT22;8716;52.268;20.968;2023-07-22T00:47:56;19.70;99.90
17200;DHT22;8716;52.268;20.968;2023-07-22T00:50:26;19.70;99.90
17200;DHT22;8716;52.268;20.968;2023-07-22T00:52:55;19.70;99.90
17200;DHT22;8716;52.268;20.968;2023-07-22T00:55:23;19.70;99.90
17200;DHT22;8716;52.268;20.968;2023-07-22T00:57:54;19.60;99.90
17200;DHT22;8716;52.268;20.968;2023-07-22T01:00:24;19.60;99.90
17200;DHT22;8716;52.268;20.968;2023-07-22T01:02:53;19.60;99.90
17200;DHT22;8716;52.268;20.968;2023-07-22T01:05:21;19.60;99.90
17200;DHT22;8716;52.268;20.968;2023-07-22T01:07:51;19.60;99.90
17200;DHT22;8716;52.268;20.968;2023-07-22T01:10:21;19.60;99.90
17200;DHT22;8716;52.268;20.968;2023-07-22T01:12:49;19.60;99.90
17200;DHT22;8716;52.268;20.968;2023-07-22T01:15:18;19.50;99.90
17200;DHT22;8716;52.268;20.968;2023-07-22T01:17:46;19.50;99.90
17200;DHT22;8716;52.268;20.968;2023-07-22T01:20:16;19.50;99.90
17200;DHT22;8716;52.268;20.968;2023-07-22T01:22:50;19.50;99.90
17200;DHT22;8716;52.268;20.968;2023-07-22T01:25:20;19.40;99.90
17200;DHT22;8716;52.268;20.968;2023-07-22T01:27:51;19.40;99.90
17200;DHT22;8716;52.268;20.968;2023-07-22T01:30:19;19.40;99.90
17200;DHT22;8716;52.268;20.968;2023-07-22T01:32:48;19.30;99.90
17200;DHT22;8716;52.268;20.968;2023-07-22T01:35:18;19.40;99.90
17200;DHT22;8716;52.268;20.968;2023-07-22T01:37:46;19.30;99.90
17200;DHT22;8716;52.268;20.968;2023-07-22T01:40:16;19.30;99.90
17200;DHT22;8716;52.268;20.968;2023-07-22T01:42:45;19.30;99.90
17200;DHT22;8716;52.268;20.968;2023-07-22T01:45:13;19.30;99.90
17200;DHT22;8716;52.268;20.968;2023-07-22T01:47:42;19.30;99.90
17200;DHT22;8716;52.268;20.968;2023-07-22T01:50:10;19.30;99.90
17200;DHT22;8716;52.268;20.968;2023-07-22T01:52:38;19.30;99.90
17200;DHT22;8716;52.268;20.968;2023-07-22T01:55:07;19.30;99.90
17200;DHT22;8716;52.268;20.968;2023-07-22T01:57:41;19.30;99.90
17200;DHT22;8716;52.268;20.968;2023-07-22T02:00:11;19.30;99.90
17200;DHT22;8716;52.268;20.968;2023-07-22T02:02:39;19.30;99.90
17200;DHT22;8716;52.268;20.968;2023-07-22T02:05:08;19.30;99.90
17200;DHT22;8716;52.268;20.968;2023-07-22T02:07:37;19.30;99.90
17200;DHT22;8716;52.268;20.968;2023-07-22T02:10:07;19.20;99.90
17200;DHT22;8716;52.268;20.968;2023-07-22T02:12:36;19.20;99.90
17200;DHT22;8716;52.268;20.968;2023-07-22T02:15:07;19.20;99.90
17200;DHT22;8716;52.268;20.968;2023-07-22T02:17:36;19.20;99.90
17200;DHT22;8716;52.268;20.968;2023-07-22T02:20:06;19.20;99.90
17200;DHT22;8716;52.268;20.968;2023-07-22T02:22:36;19.20;99.90
17200;DHT22;8716;52.268;20.968;2023-07-22T02:25:05;19.20;99.90
17200;DHT22;8716;52.268;20.968;2023-07-22T02:27:34;19.20;99.90
17200;DHT22;8716;52.268;20.968;2023-07-22T02:30:03;19.20;99.90
17200;DHT22;8716;52.268;20.968;2023-07-22T02:32:33;19.20;99.90
17200;DHT22;8716;52.268;20.968;2023-07-22T02:35:01;19.10;99.90
17200;DHT22;8716;52.268;20.968;2023-07-22T02:37:30;19.20;99.90
17200;DHT22;8716;52.268;20.968;2023-07-22T02:39:58;19.10;99.90
17200;DHT22;8716;52.268;20.968;2023-07-22T02:42:26;19.10;99.90
17200;DHT22;8716;52.268;20.968;2023-07-22T02:44:57;19.10;99.90
17200;DHT22;8716;52.268;20.968;2023-07-22T02:47:25;19.10;99.90
17200;DHT22;8716;52.268;20.968;2023-07-22T02:49:55;19.20;99.90
17200;DHT22;8716;52.268;20.968;2023-07-22T02:52:23;19.20;99.90
17200;DHT22;8716;52.268;20.968;2023-07-22T02:55:08;19.20;99.90
17200;DHT22;8716;52.268;20.968;2023-07-22T02:57:38;19.20;99.90
17200;DHT22;8716;52.268;20.968;2023-07-22T03:00:07;19.10;99.90
17200;DHT22;8716;52.268;20.968;2023-07-22T03:02:39;19.10;99.90
17200;DHT22;8716;52.268;20.968;2023-07-22T03:05:09;19.10;99.90
17200;DHT22;8716;52.268;20.968;2023-07-22T03:07:38;19.00;99.90
17200;DHT22;8716;52.268;20.968;2023-07-22T03:10:07;19.00;99.90
17200;DHT22;8716;52.268;20.968;2023-07-22T03:12:37;19.00;99.90
17200;DHT22;8716;52.268;20.968;2023-07-22T03:15:08;19.00;99.90
17200;DHT22;8716;52.268;20.968;2023-07-22T03:17:39;19.00;99.90
17200;DHT22;8716;52.268;20.968;2023-07-22T03:20:11;19.00;99.90
17200;DHT22;8716;52.268;20.968;2023-07-22T03:22:42;19.00;99.90
17200;DHT22;8716;52.268;20.968;2023-07-22T03:25:13;19.00;99.90
17200;DHT22;8716;52.268;20.968;2023-07-22T03:27:44;19.00;99.90
17200;DHT22;8716;52.268;20.968;2023-07-22T03:30:14;19.10;99.90
17200;DHT22;8716;52.268;20.968;2023-07-22T03:32:43;19.00;99.90
17200;DHT22;8716;52.268;20.968;2023-07-22T03:35:13;19.10;99.90
17200;DHT22;8716;52.268;20.968;2023-07-22T03:37:42;19.10;99.90
17200;DHT22;8716;52.268;20.968;2023-07-22T03:40:11;19.10;99.90
17200;DHT22;8716;52.268;20.968;2023-07-22T03:42:45;19.10;99.90
17200;DHT22;8716;52.268;20.968;2023-07-22T03:45:13;19.10;99.90
17200;DHT22;8716;52.268;20.968;2023-07-22T03:47:43;19.20;99.90
17200;DHT22;8716;52.268;20.968;2023-07-22T03:50:13;19.20;99.90
17200;DHT22;8716;52.268;20.968;2023-07-22T03:52:42;19.30;99.90
17200;DHT22;8716;52.268;20.968;2023-07-22T03:55:11;19.30;99.90
17200;DHT22;8716;52.268;20.968;2023-07-22T03:57:39;19.40;99.90
17200;DHT22;8716;52.268;20.968;2023-07-22T04:00:08;19.50;99.90
17200;DHT22;8716;52.268;20.968;2023-07-22T04:02:40;19.50;99.90
17200;DHT22;8716;52.268;20.968;2023-07-22T04:05:10;19.60;99.90
17200;DHT22;8716;52.268;20.968;2023-07-22T04:07:40;19.60;99.90
17200;DHT22;8716;52.268;20.968;2023-07-22T04:10:08;19.70;99.90
17200;DHT22;8716;52.268;20.968;2023-07-22T04:12:37;19.70;99.90
17200;DHT22;8716;52.268;20.968;2023-07-22T04:15:09;19.80;99.90
17200;DHT22;8716;52.268;20.968;2023-07-22T04:17:39;19.80;99.90
17200;DHT22;8716;52.268;20.968;2023-07-22T04:20:08;19.80;99.90
17200;DHT22;8716;52.268;20.968;2023-07-22T04:22:37;19.80;99.90
17200;DHT22;8716;52.268;20.968;2023-07-22T04:25:08;19.80;99.90
17200;DHT22;8716;52.268;20.968;2023-07-22T04:27:36;19.90;99.90
17200;DHT22;8716;52.268;20.968;2023-07-22T04:30:08;19.90;99.90
17200;DHT22;8716;52.268;20.968;2023-07-22T04:32:40;20.00;99.90
17200;DHT22;8716;52.268;20.968;2023-07-22T04:35:08;20.00;99.90
17200;DHT22;8716;52.268;20.968;2023-07-22T04:37:37;20.00;99.90
17200;DHT22;8716;52.268;20.968;2023-07-22T04:40:10;20.10;99.90
17200;DHT22;8716;52.268;20.968;2023-07-22T04:42:41;20.00;99.90
17200;DHT22;8716;52.268;20.968;2023-07-22T04:45:12;20.00;99.90
17200;DHT22;8716;52.268;20.968;2023-07-22T04:47:40;20.10;99.90
17200;DHT22;8716;52.268;20.968;2023-07-22T04:50:11;20.00;99.90
17200;DHT22;8716;52.268;20.968;2023-07-22T04:52:41;20.00;99.90
17200;DHT22;8716;52.268;20.968;2023-07-22T04:55:11;20.10;99.90
17200;DHT22;8716;52.268;20.968;2023-07-22T04:57:41;20.00;99.90
17200;DHT22;8716;52.268;20.968;2023-07-22T05:00:10;20.00;99.90
17200;DHT22;8716;52.268;20.968;2023-07-22T05:02:40;20.00;99.90
17200;DHT22;8716;52.268;20.968;2023-07-22T05:05:09;19.90;99.90
17200;DHT22;8716;52.268;20.968;2023-07-22T05:07:38;19.90;99.90
17200;DHT22;8716;52.268;20.968;2023-07-22T05:10:07;19.90;99.90
17200;DHT22;8716;52.268;20.968;2023-07-22T05:12:41;19.90;99.90
17200;DHT22;8716;52.268;20.968;2023-07-22T05:15:10;19.80;99.90
17200;DHT22;8716;52.268;20.968;2023-07-22T05:17:39;19.80;99.90
17200;DHT22;8716;52.268;20.968;2023-07-22T05:20:08;19.80;99.90
17200;DHT22;8716;52.268;20.968;2023-07-22T05:22:38;19.70;99.90
17200;DHT22;8716;52.268;20.968;2023-07-22T05:25:07;19.70;99.90
17200;DHT22;8716;52.268;20.968;2023-07-22T05:27:36;19.70;99.90
17200;DHT22;8716;52.268;20.968;2023-07-22T05:30:08;19.70;99.90
17200;DHT22;8716;52.268;20.968;2023-07-22T05:32:56;19.70;99.90
17200;DHT22;8716;52.268;20.968;2023-07-22T05:35:24;19.70;99.90
17200;DHT22;8716;52.268;20.968;2023-07-22T05:37:52;19.70;99.90
17200;DHT22;8716;52.268;20.968;2023-07-22T05:40:21;19.70;99.90
17200;DHT22;8716;52.268;20.968;2023-07-22T05:42:49;19.70;99.90
17200;DHT22;8716;52.268;20.968;2023-07-22T05:45:19;19.80;99.90
17200;DHT22;8716;52.268;20.968;2023-07-22T05:47:48;19.70;99.90
17200;DHT22;8716;52.268;20.968;2023-07-22T05:50:16;19.80;99.90
17200;DHT22;8716;52.268;20.968;2023-07-22T05:52:44;19.80;99.90
17200;DHT22;8716;52.268;20.968;2023-07-22T05:55:13;19.80;99.90
17200;DHT22;8716;52.268;20.968;2023-07-22T05:57:42;19.80;99.90
17200;DHT22;8716;52.268;20.968;2023-07-22T06:00:11;19.90;99.90
17200;DHT22;8716;52.268;20.968;2023-07-22T06:02:41;19.90;99.90
17200;DHT22;8716;52.268;20.968;2023-07-22T06:05:12;19.90;99.90
17200;DHT22;8716;52.268;20.968;2023-07-22T06:07:40;20.00;99.90
17200;DHT22;8716;52.268;20.968;2023-07-22T06:10:09;20.10;99.90
17200;DHT22;8716;52.268;20.968;2023-07-22T06:12:38;20.10;99.90
17200;DHT22;8716;52.268;20.968;2023-07-22T06:15:10;20.10;99.90
17200;DHT22;8716;52.268;20.968;2023-07-22T06:17:40;20.10;99.90
17200;DHT22;8716;52.268;20.968;2023-07-22T06:20:10;20.10;99.90
17200;DHT22;8716;52.268;20.968;2023-07-22T06:22:39;20.30;99.90
17200;DHT22;8716;52.268;20.968;2023-07-22T06:25:08;20.50;99.90
17200;DHT22;8716;52.268;20.968;2023-07-22T06:27:37;20.60;99.90
17200;DHT22;8716;52.268;20.968;2023-07-22T06:30:07;20.80;99.90
17200;DHT22;8716;52.268;20.968;2023-07-22T06:32:40;20.90;99.90
17200;DHT22;8716;52.268;20.968;2023-07-22T06:35:10;21.10;99.90
17200;DHT22;8716;52.268;20.968;2023-07-22T06:37:38;21.30;99.90
17200;DHT22;8716;52.268;20.968;2023-07-22T06:40:08;21.50;99.90
17200;DHT22;8716;52.268;20.968;2023-07-22T06:42:36;21.70;99.90
17200;DHT22;8716;52.268;20.968;2023-07-22T06:45:05;21.80;99.90
17200;DHT22;8716;52.268;20.968;2023-07-22T06:47:34;21.90;99.90
17200;DHT22;8716;52.268;20.968;2023-07-22T06:50:05;22.10;99.90
17200;DHT22;8716;52.268;20.968;2023-07-22T06:52:34;22.10;99.90
17200;DHT22;8716;52.268;20.968;2023-07-22T06:55:02;22.30;99.90
17200;DHT22;8716;52.268;20.968;2023-07-22T06:57:32;22.40;99.90
17200;DHT22;8716;52.268;20.968;2023-07-22T07:00:00;22.50;99.90
17200;DHT22;8716;52.268;20.968;2023-07-22T07:02:29;22.70;99.90
17200;DHT22;8716;52.268;20.968;2023-07-22T07:04:57;22.80;99.90
17200;DHT22;8716;52.268;20.968;2023-07-22T07:07:27;22.80;99.90
17200;DHT22;8716;52.268;20.968;2023-07-22T07:09:55;22.80;99.90
17200;DHT22;8716;52.268;20.968;2023-07-22T07:12:24;22.80;99.90
17200;DHT22;8716;52.268;20.968;2023-07-22T07:14:53;22.90;99.90
17200;DHT22;8716;52.268;20.968;2023-07-22T07:17:21;23.00;99.90
17200;DHT22;8716;52.268;20.968;2023-07-22T07:19:50;23.00;99.90
17200;DHT22;8716;52.268;20.968;2023-07-22T07:22:20;23.10;99.90
17200;DHT22;8716;52.268;20.968;2023-07-22T07:24:50;23.20;99.90
17200;DHT22;8716;52.268;20.968;2023-07-22T07:27:20;23.30;99.90
17200;DHT22;8716;52.268;20.968;2023-07-22T07:29:49;23.40;99.90
17200;DHT22;8716;52.268;20.968;2023-07-22T07:32:21;23.60;99.90
17200;DHT22;8716;52.268;20.968;2023-07-22T07:34:50;23.80;99.90
17200;DHT22;8716;52.268;20.968;2023-07-22T07:37:18;24.10;99.90
17200;DHT22;8716;52.268;20.968;2023-07-22T07:39:47;24.40;99.90
17200;DHT22;8716;52.268;20.968;2023-07-22T07:42:17;24.70;99.90
17200;DHT22;8716;52.268;20.968;2023-07-22T07:44:46;25.70;99.90
17200;DHT22;8716;52.268;20.968;2023-07-22T07:47:14;27.10;99.90
17200;DHT22;8716;52.268;20.968;2023-07-22T07:49:42;28.30;99.90
17200;DHT22;8716;52.268;20.968;2023-07-22T07:52:13;29.50;99.90
17200;DHT22;8716;52.268;20.968;2023-07-22T07:54:41;31.00;99.90
17200;DHT22;8716;52.268;20.968;2023-07-22T07:57:10;32.30;99.90
17200;DHT22;8716;52.268;20.968;2023-07-22T07:59:39;33.10;99.20
17200;DHT22;8716;52.268;20.968;2023-07-22T08:02:08;33.20;96.90
17200;DHT22;8716;52.268;20.968;2023-07-22T08:04:37;33.60;95.30
17200;DHT22;8716;52.268;20.968;2023-07-22T08:07:06;34.40;91.60
17200;DHT22;8716;52.268;20.968;2023-07-22T08:09:34;35.20;90.10
17200;DHT22;8716;52.268;20.968;2023-07-22T08:12:03;36.10;84.30
17200;DHT22;8716;52.268;20.968;2023-07-22T08:14:34;36.80;78.70
17200;DHT22;8716;52.268;20.968;2023-07-22T08:17:06;37.50;74.30
17200;DHT22;8716;52.268;20.968;2023-07-22T08:19:34;38.00;67.70
17200;DHT22;8716;52.268;20.968;2023-07-22T08:22:03;38.10;64.90
17200;DHT22;8716;52.268;20.968;2023-07-22T08:24:33;38.10;63.90
17200;DHT22;8716;52.268;20.968;2023-07-22T08:27:01;38.30;63.40
17200;DHT22;8716;52.268;20.968;2023-07-22T08:29:30;38.60;62.00
17200;DHT22;8716;52.268;20.968;2023-07-22T08:32:05;38.90;60.30
17200;DHT22;8716;52.268;20.968;2023-07-22T08:34:34;39.00;58.80
17200;DHT22;8716;52.268;20.968;2023-07-22T08:37:02;39.10;57.80
17200;DHT22;8716;52.268;20.968;2023-07-22T08:39:33;39.50;57.20
17200;DHT22;8716;52.268;20.968;2023-07-22T08:42:03;39.90;57.00
17200;DHT22;8716;52.268;20.968;2023-07-22T08:44:33;40.40;55.80
17200;DHT22;8716;52.268;20.968;2023-07-22T08:47:03;40.70;53.90
17200;DHT22;8716;52.268;20.968;2023-07-22T08:49:36;40.80;53.20
17200;DHT22;8716;52.268;20.968;2023-07-22T08:52:05;40.50;52.70
17200;DHT22;8716;52.268;20.968;2023-07-22T08:54:34;40.20;52.70
17200;DHT22;8716;52.268;20.968;2023-07-22T08:57:03;40.10;54.10
17200;DHT22;8716;52.268;20.968;2023-07-22T08:59:35;40.00;52.90
17200;DHT22;8716;52.268;20.968;2023-07-22T09:02:05;40.10;53.40
17200;DHT22;8716;52.268;20.968;2023-07-22T09:04:37;39.70;53.60
17200;DHT22;8716;52.268;20.968;2023-07-22T09:07:08;39.20;54.10
17200;DHT22;8716;52.268;20.968;2023-07-22T09:09:37;39.30;54.40
17200;DHT22;8716;52.268;20.968;2023-07-22T09:12:06;39.80;54.10
17200;DHT22;8716;52.268;20.968;2023-07-22T09:14:35;40.20;52.70
17200;DHT22;8716;52.268;20.968;2023-07-22T09:17:05;40.60;52.00
17200;DHT22;8716;52.268;20.968;2023-07-22T09:19:38;40.80;51.80
17200;DHT22;8716;52.268;20.968;2023-07-22T09:22:07;40.80;50.90
17200;DHT22;8716;52.268;20.968;2023-07-22T09:24:36;40.70;51.80
17200;DHT22;8716;52.268;20.968;2023-07-22T09:27:05;40.80;51.60
17200;DHT22;8716;52.268;20.968;2023-07-22T09:29:34;40.70;51.30
17200;DHT22;8716;52.268;20.968;2023-07-22T09:32:03;40.10;51.20
17200;DHT22;8716;52.268;20.968;2023-07-22T09:34:34;40.20;50.90
17200;DHT22;8716;52.268;20.968;2023-07-22T09:37:06;40.10;51.10
17200;DHT22;8716;52.268;20.968;2023-07-22T09:39:35;40.20;51.10
17200;DHT22;8716;52.268;20.968;2023-07-22T09:44:55;40.50;50.90
17200;DHT22;8716;52.268;20.968;2023-07-22T09:47:23;40.80;50.90
17200;DHT22;8716;52.268;20.968;2023-07-22T09:49:52;40.00;51.00
17200;DHT22;8716;52.268;20.968;2023-07-22T09:52:21;38.80;51.60
17200;DHT22;8716;52.268;20.968;2023-07-22T09:54:52;38.10;52.50
17200;DHT22;8716;52.268;20.968;2023-07-22T09:57:23;38.10;52.40
17200;DHT22;8716;52.268;20.968;2023-07-22T09:59:53;38.20;51.20
17200;DHT22;8716;52.268;20.968;2023-07-22T10:02:22;38.40;50.90
17200;DHT22;8716;52.268;20.968;2023-07-22T10:04:52;38.40;51.40
17200;DHT22;8716;52.268;20.968;2023-07-22T10:07:23;38.30;51.90
17200;DHT22;8716;52.268;20.968;2023-07-22T10:09:54;38.50;52.00
17200;DHT22;8716;52.268;20.968;2023-07-22T10:12:23;38.10;51.50
17200;DHT22;8716;52.268;20.968;2023-07-22T10:14:52;38.10;52.20
17200;DHT22;8716;52.268;20.968;2023-07-22T10:17:22;38.30;52.40
17200;DHT22;8716;52.268;20.968;2023-07-22T10:19:51;38.80;52.10
17200;DHT22;8716;52.268;20.968;2023-07-22T10:22:20;39.30;50.00
17200;DHT22;8716;52.268;20.968;2023-07-22T10:24:52;39.50;49.20
17200;DHT22;8716;52.268;20.968;2023-07-22T10:27:22;39.20;49.40
17200;DHT22;8716;52.268;20.968;2023-07-22T10:29:52;39.20;49.30
17200;DHT22;8716;52.268;20.968;2023-07-22T10:32:21;38.80;48.50
17200;DHT22;8716;52.268;20.968;2023-07-22T10:34:53;38.70;49.10
17200;DHT22;8716;52.268;20.968;2023-07-22T10:37:33;38.90;50.00
17200;DHT22;8716;52.268;20.968;2023-07-22T10:40:26;38.60;49.80
17200;DHT22;8716;52.268;20.968;2023-07-22T10:43:03;38.50;50.00
17200;DHT22;8716;52.268;20.968;2023-07-22T10:45:36;37.90;50.00
17200;DHT22;8716;52.268;20.968;2023-07-22T10:48:08;37.00;50.50
17200;DHT22;8716;52.268;20.968;2023-07-22T10:50:41;36.00;52.00
17200;DHT22;8716;52.268;20.968;2023-07-22T10:53:11;35.00;53.10
17200;DHT22;8716;52.268;20.968;2023-07-22T10:56:03;34.10;54.40
17200;DHT22;8716;52.268;20.968;2023-07-22T10:58:32;33.30;55.60
17200;DHT22;8716;52.268;20.968;2023-07-22T11:01:23;32.70;56.40
17200;DHT22;8716;52.268;20.968;2023-07-22T11:04:20;32.60;57.50
17200;DHT22;8716;52.268;20.968;2023-07-22T11:06:54;32.80;58.20
17200;DHT22;8716;52.268;20.968;2023-07-22T11:09:40;33.00;57.30
17200;DHT22;8716;52.268;20.968;2023-07-22T11:12:17;32.80;57.50
17200;DHT22;8716;52.268;20.968;2023-07-22T11:14:48;32.50;58.10
17200;DHT22;8716;52.268;20.968;2023-07-22T11:17:18;32.10;58.50
17200;DHT22;8716;52.268;20.968;2023-07-22T11:19:46;31.90;59.30
17200;DHT22;8716;52.268;20.968;2023-07-22T11:22:16;32.00;59.50
17200;DHT22;8716;52.268;20.968;2023-07-22T11:24:44;32.10;59.20
17200;DHT22;8716;52.268;20.968;2023-07-22T11:27:14;32.20;58.90
17200;DHT22;8716;52.268;20.968;2023-07-22T11:29:45;32.10;58.30
17200;DHT22;8716;52.268;20.968;2023-07-22T11:32:17;32.20;59.10
17200;DHT22;8716;52.268;20.968;2023-07-22T11:34:48;32.20;58.10
17200;DHT22;8716;52.268;20.968;2023-07-22T11:37:17;32.40;58.30
17200;DHT22;8716;52.268;20.968;2023-07-22T11:39:46;32.40;58.10
17200;DHT22;8716;52.268;20.968;2023-07-22T11:42:16;32.30;58.00
17200;DHT22;8716;52.268;20.968;2023-07-22T11:44:44;32.00;58.60
17200;DHT22;8716;52.268;20.968;2023-07-22T11:47:13;31.70;58.80
17200;DHT22;8716;52.268;20.968;2023-07-22T11:49:42;31.50;59.70
17200;DHT22;8716;52.268;20.968;2023-07-22T11:52:16;31.30;60.30
17200;DHT22;8716;52.268;20.968;2023-07-22T11:54:46;31.20;60.60
17200;DHT22;8716;52.268;20.968;2023-07-22T11:57:17;31.00;60.50
17200;DHT22;8716;52.268;20.968;2023-07-22T11:59:47;30.90;61.20
17200;DHT22;8716;52.268;20.968;2023-07-22T12:02:16;30.70;61.40
17200;DHT22;8716;52.268;20.968;2023-07-22T12:04:51;30.70;62.30
17200;DHT22;8716;52.268;20.968;2023-07-22T12:07:24;30.60;62.00
17200;DHT22;8716;52.268;20.968;2023-07-22T12:09:54;30.60;61.60
17200;DHT22;8716;52.268;20.968;2023-07-22T12:12:34;30.60;61.50
17200;DHT22;8716;52.268;20.968;2023-07-22T12:15:08;30.40;61.90
17200;DHT22;8716;52.268;20.968;2023-07-22T12:17:45;30.30;61.30
17200;DHT22;8716;52.268;20.968;2023-07-22T12:20:14;30.20;60.00
17200;DHT22;8716;52.268;20.968;2023-07-22T12:22:43;30.10;60.00
17200;DHT22;8716;52.268;20.968;2023-07-22T12:25:11;29.90;60.30
17200;DHT22;8716;52.268;20.968;2023-07-22T12:27:41;29.80;60.90
17200;DHT22;8716;52.268;20.968;2023-07-22T12:30:09;29.70;61.10
17200;DHT22;8716;52.268;20.968;2023-07-22T12:32:38;29.50;61.80
17200;DHT22;8716;52.268;20.968;2023-07-22T12:35:07;29.40;62.10
17200;DHT22;8716;52.268;20.968;2023-07-22T12:37:36;29.40;62.50
17200;DHT22;8716;52.268;20.968;2023-07-22T12:40:05;29.40;62.30
17200;DHT22;8716;52.268;20.968;2023-07-22T12:42:36;29.20;61.60
17200;DHT22;8716;52.268;20.968;2023-07-22T12:45:07;29.10;61.20
17200;DHT22;8716;52.268;20.968;2023-07-22T12:47:36;29.10;61.70
17200;DHT22;8716;52.268;20.968;2023-07-22T12:50:05;29.10;61.60
17200;DHT22;8716;52.268;20.968;2023-07-22T12:52:37;29.10;61.70
17200;DHT22;8716;52.268;20.968;2023-07-22T12:55:06;29.10;59.90
17200;DHT22;8716;52.268;20.968;2023-07-22T12:57:34;28.90;60.20
17200;DHT22;8716;52.268;20.968;2023-07-22T13:00:03;28.70;59.90
17200;DHT22;8716;52.268;20.968;2023-07-22T13:02:38;28.60;60.00
17200;DHT22;8716;52.268;20.968;2023-07-22T13:05:07;28.50;60.60
17200;DHT22;8716;52.268;20.968;2023-07-22T13:07:36;28.60;61.10
17200;DHT22;8716;52.268;20.968;2023-07-22T13:10:05;28.50;60.50
17200;DHT22;8716;52.268;20.968;2023-07-22T13:12:36;28.40;61.00
17200;DHT22;8716;52.268;20.968;2023-07-22T13:15:05;28.20;60.10
17200;DHT22;8716;52.268;20.968;2023-07-22T13:17:33;28.10;60.60
17200;DHT22;8716;52.268;20.968;2023-07-22T13:20:04;28.00;61.40
17200;DHT22;8716;52.268;20.968;2023-07-22T13:22:36;28.00;62.10
17200;DHT22;8716;52.268;20.968;2023-07-22T13:25:05;28.00;63.40
17200;DHT22;8716;52.268;20.968;2023-07-22T13:27:35;27.90;63.20
17200;DHT22;8716;52.268;20.968;2023-07-22T13:30:06;28.00;63.70
17200;DHT22;8716;52.268;20.968;2023-07-22T13:32:35;28.00;63.30
17200;DHT22;8716;52.268;20.968;2023-07-22T13:35:08;28.10;63.20
17200;DHT22;8716;52.268;20.968;2023-07-22T13:37:37;28.10;63.60
17200;DHT22;8716;52.268;20.968;2023-07-22T13:40:06;28.10;63.70
17200;DHT22;8716;52.268;20.968;2023-07-22T13:42:38;28.00;63.60
17200;DHT22;8716;52.268;20.968;2023-07-22T13:45:07;27.90;61.90
17200;DHT22;8716;52.268;20.968;2023-07-22T13:47:38;27.90;62.00
17200;DHT22;8716;52.268;20.968;2023-07-22T13:50:09;27.80;62.10
17200;DHT22;8716;52.268;20.968;2023-07-22T13:52:37;27.80;62.00
17200;DHT22;8716;52.268;20.968;2023-07-22T13:55:08;27.80;62.00
17200;DHT22;8716;52.268;20.968;2023-07-22T13:57:36;27.70;62.20
17200;DHT22;8716;52.268;20.968;2023-07-22T14:00:05;27.70;62.10
17200;DHT22;8716;52.268;20.968;2023-07-22T14:02:38;27.70;62.70
17200;DHT22;8716;52.268;20.968;2023-07-22T14:05:08;27.60;62.80
17200;DHT22;8716;52.268;20.968;2023-07-22T14:07:37;27.70;62.90
17200;DHT22;8716;52.268;20.968;2023-07-22T14:10:06;27.70;62.30
17200;DHT22;8716;52.268;20.968;2023-07-22T14:12:35;27.70;62.70
17200;DHT22;8716;52.268;20.968;2023-07-22T14:15:05;27.60;62.50
17200;DHT22;8716;52.268;20.968;2023-07-22T14:17:34;27.50;62.50
17200;DHT22;8716;52.268;20.968;2023-07-22T14:20:03;27.40;62.60
17200;DHT22;8716;52.268;20.968;2023-07-22T14:22:35;27.40;63.20
17200;DHT22;8716;52.268;20.968;2023-07-22T14:25:04;27.40;62.50
17200;DHT22;8716;52.268;20.968;2023-07-22T14:27:32;27.30;61.90
17200;DHT22;8716;52.268;20.968;2023-07-22T14:30:02;27.30;62.00
17200;DHT22;8716;52.268;20.968;2023-07-22T14:32:31;27.30;62.20
17200;DHT22;8716;52.268;20.968;2023-07-22T14:34:59;27.20;61.50
17200;DHT22;8716;52.268;20.968;2023-07-22T14:37:27;27.10;62.00
17200;DHT22;8716;52.268;20.968;2023-07-22T14:39:57;27.00;62.00
17200;DHT22;8716;52.268;20.968;2023-07-22T14:42:26;27.00;63.20
17200;DHT22;8716;52.268;20.968;2023-07-22T14:44:54;26.90;64.80
17200;DHT22;8716;52.268;20.968;2023-07-22T14:47:22;26.90;65.50
17200;DHT22;8716;52.268;20.968;2023-07-22T14:49:50;26.90;66.00
17200;DHT22;8716;52.268;20.968;2023-07-22T14:52:19;26.80;66.30
17200;DHT22;8716;52.268;20.968;2023-07-22T14:54:48;26.70;66.90
17200;DHT22;8716;52.268;20.968;2023-07-22T15:00:12;26.60;67.30
17200;DHT22;8716;52.268;20.968;2023-07-22T15:02:54;26.60;67.60
17200;DHT22;8716;52.268;20.968;2023-07-22T15:05:36;26.60;66.40
17200;DHT22;8716;52.268;20.968;2023-07-22T15:08:07;26.50;66.50
17200;DHT22;8716;52.268;20.968;2023-07-22T15:14:00;26.50;64.70
17200;DHT22;8716;52.268;20.968;2023-07-22T15:16:40;26.50;65.40
17200;DHT22;8716;52.268;20.968;2023-07-22T15:19:14;26.40;64.80
17200;DHT22;8716;52.268;20.968;2023-07-22T15:21:50;26.40;65.00
17200;DHT22;8716;52.268;20.968;2023-07-22T15:24:44;26.40;64.80
17200;DHT22;8716;52.268;20.968;2023-07-22T15:27:16;26.30;64.80
17200;DHT22;8716;52.268;20.968;2023-07-22T15:29:57;26.20;65.40
17200;DHT22;8716;52.268;20.968;2023-07-22T15:32:44;26.10;66.00
17200;DHT22;8716;52.268;20.968;2023-07-22T15:35:19;26.10;66.50
17200;DHT22;8716;52.268;20.968;2023-07-22T15:37:50;26.10;67.10
17200;DHT22;8716;52.268;20.968;2023-07-22T15:40:26;26.20;67.40
17200;DHT22;8716;52.268;20.968;2023-07-22T15:42:55;26.30;67.70
17200;DHT22;8716;52.268;20.968;2023-07-22T15:45:26;26.20;67.90
17200;DHT22;8716;52.268;20.968;2023-07-22T15:47:54;26.10;68.50
17200;DHT22;8716;52.268;20.968;2023-07-22T15:50:23;26.10;68.80
17200;DHT22;8716;52.268;20.968;2023-07-22T15:52:52;26.10;69.00
17200;DHT22;8716;52.268;20.968;2023-07-22T15:55:24;26.10;68.70
17200;DHT22;8716;52.268;20.968;2023-07-22T15:57:52;26.10;69.30